Maramec, Oklahoma
Current Conditions -  °F | °C
As of 8:35 AM on Monday 22 Dec 2014 (Local Time) from KCUH Reporting Station
Haze Haze  
Wind Chill: 44°   Ceiling: 2600
Heat Index: 46°   Visibility: 3mi
Dew Point: 46°   Wind: 5mph
Humidity: 100%   Direction: 210°SSW
Pressure: 29.6"   Gusts: NA
Location:  36.24°N, 96.68°W
Report Text: KCUH 221435Z AUTO 21004KT 3SM BR OVC026 08/08 A2960 RMK AO2
Loading
Personal Weather Stations






























Interactive Weather Map New forecast layout! Learn more

10-Day Weather Forecast

Advertisements
Track Severe Weather on mobile